createdAt,value
2022-10-19T00:01:19.494Z,15.38
2022-10-19T00:06:27.865Z,15.38
2022-10-19T00:09:00.487Z,15.00
2022-10-19T00:11:28.915Z,15.23
2022-10-19T00:13:56.985Z,15.95
2022-10-19T00:16:25.872Z,16.15
2022-10-19T00:18:57.635Z,16.08
2022-10-19T00:21:24.923Z,13.95
2022-10-19T00:23:51.908Z,15.93
2022-10-19T00:26:18.900Z,15.52
2022-10-19T00:28:45.908Z,15.43
2022-10-19T00:31:16.288Z,14.52
2022-10-19T00:33:47.078Z,13.50
2022-10-19T00:36:29.374Z,14.50
2022-10-19T00:38:56.996Z,14.45
2022-10-19T00:41:26.874Z,14.02
2022-10-19T00:43:58.749Z,15.68
2022-10-19T00:46:27.522Z,15.30
2022-10-19T00:49:01.062Z,14.18
2022-10-19T00:51:29.563Z,14.80
2022-10-19T00:53:57.204Z,14.52
2022-10-19T00:56:24.548Z,14.23
2022-10-19T00:58:51.681Z,14.00
2022-10-19T01:01:22.411Z,15.13
2022-10-19T01:03:49.441Z,13.90
2022-10-19T01:06:18.392Z,15.00
2022-10-19T01:08:45.765Z,14.75
2022-10-19T01:11:44.135Z,15.27
2022-10-19T01:14:48.400Z,15.35
2022-10-19T01:17:34.412Z,15.15
2022-10-19T01:20:36.540Z,12.95
2022-10-19T01:23:23.931Z,14.07
2022-10-19T01:26:37.349Z,13.48
2022-10-19T01:29:22.717Z,13.90
2022-10-19T01:32:22.643Z,13.85
2022-10-19T01:35:06.731Z,13.18
2022-10-19T01:37:46.994Z,11.90
2022-10-19T01:40:50.546Z,11.52
2022-10-19T01:43:58.799Z,11.05
2022-10-19T01:46:51.012Z,10.57
2022-10-19T01:49:39.316Z,11.38
2022-10-19T01:52:10.105Z,11.52
2022-10-19T01:54:42.765Z,11.40
2022-10-19T01:57:13.358Z,10.75
2022-10-19T01:59:41.379Z,10.27
2022-10-19T02:02:10.661Z,10.93
2022-10-19T02:04:39.346Z,11.38
2022-10-19T02:07:08.431Z,10.77
2022-10-19T02:09:35.874Z,10.45
2022-10-19T02:12:06.467Z,11.05
2022-10-19T02:14:39.564Z,11.15
2022-10-19T02:17:10.578Z,9.98
2022-10-19T02:19:38.955Z,10.48
2022-10-19T02:22:06.626Z,9.73
2022-10-19T02:24:33.644Z,10.43
2022-10-19T02:27:01.930Z,9.95
2022-10-19T02:29:28.930Z,10.13
2022-10-19T02:31:55.896Z,9.45
2022-10-19T02:34:23.217Z,9.10
2022-10-19T02:36:50.357Z,9.00
2022-10-19T02:39:17.651Z,10.10
2022-10-19T02:42:03.144Z,9.32
2022-10-19T02:44:56.440Z,9.20
2022-10-19T02:47:31.319Z,9.27
2022-10-19T02:49:58.654Z,9.20
2022-10-19T02:52:25.624Z,9.18
2022-10-19T02:54:52.522Z,10.05
2022-10-19T02:57:22.874Z,9.88
2022-10-19T02:59:50.751Z,10.10
2022-10-19T03:02:18.515Z,10.15
2022-10-19T03:07:20.521Z,10.68
2022-10-19T03:09:47.643Z,10.30
2022-10-19T03:12:15.151Z,10.77
2022-10-19T03:14:42.308Z,10.90
2022-10-19T03:17:09.907Z,10.57
2022-10-19T03:19:37.421Z,10.60
2022-10-19T03:22:04.414Z,9.98
2022-10-19T03:24:32.230Z,9.77
2022-10-19T03:26:59.177Z,10.45
2022-10-19T03:29:26.127Z,12.93
2022-10-19T03:31:53.047Z,11.07
2022-10-19T03:34:20.028Z,12.15
2022-10-19T03:36:47.033Z,13.40
2022-10-19T03:39:16.078Z,14.68
2022-10-19T03:41:44.064Z,15.55
2022-10-19T03:44:11.888Z,16.40
2022-10-19T03:46:39.748Z,16.75
2022-10-19T03:49:07.301Z,17.25
2022-10-19T03:51:34.754Z,16.77
2022-10-19T03:54:06.092Z,16.20
2022-10-19T03:56:35.161Z,16.35
2022-10-19T03:59:03.896Z,15.98
2022-10-19T04:01:36.798Z,16.83
2022-10-19T04:04:06.905Z,14.73
2022-10-19T04:06:36.161Z,17.02
2022-10-19T04:09:04.706Z,16.42
2022-10-19T04:11:32.683Z,15.13
2022-10-19T04:14:00.196Z,15.50
2022-10-19T04:16:29.146Z,16.52
2022-10-19T04:18:56.068Z,17.40
2022-10-19T04:21:29.534Z,14.40
2022-10-19T04:24:05.407Z,12.57
2022-10-19T04:26:33.606Z,14.27
2022-10-19T04:29:02.135Z,14.77
2022-10-19T04:31:29.555Z,13.60
2022-10-19T04:33:57.030Z,14.57
2022-10-19T04:36:24.603Z,14.07
2022-10-19T04:38:51.959Z,13.57
2022-10-19T04:41:20.650Z,13.70
2022-10-19T04:43:48.683Z,13.55
2022-10-19T04:46:18.629Z,13.70
2022-10-19T04:48:47.369Z,13.68
2022-10-19T04:51:15.073Z,14.27
2022-10-19T04:53:43.194Z,13.53
2022-10-19T04:56:19.196Z,12.30
2022-10-19T04:58:46.302Z,13.63
2022-10-19T05:01:16.417Z,13.80
2022-10-19T05:03:44.583Z,14.53
2022-10-19T05:06:12.687Z,13.70
2022-10-19T05:08:40.246Z,13.63
2022-10-19T05:11:14.889Z,13.85
2022-10-19T05:13:43.208Z,12.80
2022-10-19T05:16:16.148Z,12.90
2022-10-19T05:18:43.186Z,12.73
2022-10-19T05:21:12.531Z,12.90
2022-10-19T05:23:40.639Z,13.90
2022-10-19T05:26:13.182Z,13.70
2022-10-19T05:28:40.383Z,12.95
2022-10-19T05:31:11.394Z,14.98
2022-10-19T05:33:39.313Z,14.68
2022-10-19T05:36:18.016Z,16.60
2022-10-19T05:38:47.348Z,20.45
2022-10-19T05:41:15.475Z,62.05
2022-10-19T05:43:43.530Z,60.78
2022-10-19T05:46:13.918Z,61.90
2022-10-19T05:48:41.856Z,42.53
2022-10-19T05:51:11.866Z,33.97
2022-10-19T05:53:39.996Z,28.73
2022-10-19T05:56:09.669Z,23.15
2022-10-19T05:58:36.843Z,23.60
2022-10-19T06:01:04.605Z,18.65
2022-10-19T06:03:33.373Z,18.35
2022-10-19T06:06:03.657Z,18.42
2022-10-19T06:08:31.563Z,16.75
2022-10-19T06:11:13.164Z,17.77
2022-10-19T06:13:41.623Z,18.73
2022-10-19T06:16:10.532Z,18.05
2022-10-19T06:18:38.022Z,18.33
2022-10-19T06:21:12.736Z,16.80
2022-10-19T06:23:40.023Z,17.98
2022-10-19T06:26:12.589Z,15.38
2022-10-19T06:28:41.931Z,20.48
2022-10-19T06:31:09.560Z,18.70
2022-10-19T06:33:37.446Z,19.50
2022-10-19T06:36:17.199Z,18.92
2022-10-19T06:38:44.611Z,19.20
2022-10-19T06:41:12.570Z,18.13
2022-10-19T06:43:39.993Z,18.35
2022-10-19T06:46:09.035Z,16.10
2022-10-19T06:48:36.157Z,17.42
2022-10-19T06:51:06.472Z,18.88
2022-10-19T06:53:42.985Z,18.13
2022-10-19T06:56:10.999Z,17.25
2022-10-19T06:58:38.874Z,19.10
2022-10-19T07:01:07.799Z,19.30
2022-10-19T07:03:35.473Z,21.88
2022-10-19T07:06:10.279Z,24.20
2022-10-19T07:08:39.702Z,27.00
2022-10-19T07:11:09.505Z,29.30
2022-10-19T07:13:36.482Z,27.90
2022-10-19T07:16:07.087Z,25.35
2022-10-19T07:18:36.295Z,26.58
2022-10-19T07:21:09.059Z,25.02
2022-10-19T07:23:38.698Z,24.23
2022-10-19T07:26:08.214Z,25.42
2022-10-19T07:28:35.490Z,24.60
2022-10-19T07:31:11.181Z,23.55
2022-10-19T07:33:38.782Z,22.55
2022-10-19T07:36:08.240Z,20.85
2022-10-19T07:38:35.846Z,23.48
2022-10-19T07:41:10.399Z,20.73
2022-10-19T07:43:37.360Z,20.33
2022-10-19T07:46:07.372Z,22.17
2022-10-19T07:48:35.575Z,21.95
2022-10-19T07:51:04.755Z,22.92
2022-10-19T07:53:31.917Z,22.38
2022-10-19T07:56:06.431Z,23.08
2022-10-19T07:58:34.466Z,28.20
2022-10-19T08:01:06.960Z,23.88
2022-10-19T08:06:22.816Z,22.02
2022-10-19T08:08:50.576Z,22.23
2022-10-19T08:11:29.912Z,24.02
2022-10-19T08:13:59.431Z,24.02
2022-10-19T08:16:41.791Z,26.05
2022-10-19T08:19:14.079Z,24.70
2022-10-19T08:21:44.033Z,22.35
2022-10-19T08:24:13.458Z,22.40
2022-10-19T08:26:40.957Z,22.85
2022-10-19T08:29:11.226Z,23.73
2022-10-19T08:31:39.211Z,24.63
2022-10-19T08:34:06.578Z,20.52
2022-10-19T08:36:35.736Z,21.05
2022-10-19T08:39:07.701Z,20.35
2022-10-19T08:41:45.314Z,17.55
2022-10-19T08:44:46.406Z,18.50
2022-10-19T08:47:31.634Z,17.70
2022-10-19T08:49:59.928Z,17.45
2022-10-19T08:52:35.895Z,18.88
2022-10-19T08:55:13.994Z,17.05
2022-10-19T08:58:05.090Z,16.10
2022-10-19T09:00:58.043Z,16.08
2022-10-19T09:03:54.326Z,15.98
2022-10-19T09:06:29.443Z,15.13
2022-10-19T09:08:58.469Z,15.32
2022-10-19T09:11:31.600Z,14.68
2022-10-19T09:14:06.867Z,15.60
2022-10-19T09:16:35.274Z,14.80
2022-10-19T09:19:04.127Z,15.02
2022-10-19T09:21:47.968Z,14.98
2022-10-19T09:24:43.931Z,16.67
2022-10-19T09:27:25.681Z,16.50
2022-10-19T09:29:58.015Z,15.57
2022-10-19T09:32:31.350Z,17.90
2022-10-19T09:35:02.492Z,15.82
2022-10-19T09:37:32.408Z,16.73
2022-10-19T09:39:59.421Z,16.17
2022-10-19T09:42:33.812Z,17.23
2022-10-19T09:45:11.470Z,18.52
2022-10-19T09:47:40.771Z,19.02
2022-10-19T09:50:09.007Z,18.60
2022-10-19T09:52:40.687Z,18.63
2022-10-19T09:55:20.918Z,17.08
2022-10-19T09:57:50.751Z,18.48
2022-10-19T10:00:23.696Z,18.55
2022-10-19T10:02:52.917Z,17.88
2022-10-19T10:05:29.839Z,18.30
2022-10-19T10:10:30.514Z,18.57
2022-10-19T10:12:59.954Z,18.73
2022-10-19T10:15:29.352Z,17.83
2022-10-19T10:17:57.360Z,20.98
2022-10-19T10:20:32.655Z,19.13
2022-10-19T10:23:04.924Z,19.25
2022-10-19T10:25:36.300Z,21.55
2022-10-19T10:28:21.407Z,17.85
2022-10-19T10:30:52.985Z,18.05
2022-10-19T10:33:43.879Z,17.17
2022-10-19T10:36:12.718Z,16.45
2022-10-19T10:38:50.211Z,16.80
2022-10-19T10:41:23.187Z,17.00
2022-10-19T10:44:04.750Z,16.42
2022-10-19T10:46:43.142Z,17.52
2022-10-19T10:49:22.028Z,17.17
2022-10-19T10:51:54.413Z,18.67
2022-10-19T10:54:27.816Z,18.00
2022-10-19T10:57:13.317Z,16.73
2022-10-19T11:00:09.955Z,16.02
2022-10-19T11:02:42.555Z,16.30
2022-10-19T11:05:24.484Z,15.05
2022-10-19T11:08:03.707Z,15.23
2022-10-19T11:10:36.869Z,13.63
2022-10-19T11:13:18.217Z,12.45
2022-10-19T11:16:06.697Z,12.98
2022-10-19T11:18:42.433Z,13.82
2022-10-19T11:21:43.258Z,12.90
2022-10-19T11:24:37.902Z,12.13
2022-10-19T11:27:20.852Z,13.05
2022-10-19T11:30:09.863Z,12.57
2022-10-19T11:33:07.517Z,12.55
2022-10-19T11:35:37.730Z,12.43
2022-10-19T11:38:21.174Z,12.35
2022-10-19T11:41:16.493Z,10.13
2022-10-19T11:46:36.167Z,10.52
2022-10-19T11:49:22.468Z,9.27
2022-10-19T11:51:58.260Z,9.50
2022-10-19T11:54:39.151Z,8.90
2022-10-19T11:57:21.255Z,8.73
2022-10-19T12:00:08.625Z,8.32
2022-10-19T12:02:44.926Z,9.82
2022-10-19T12:05:24.916Z,9.88
2022-10-19T12:08:25.985Z,10.13
2022-10-19T12:11:19.233Z,9.45
2022-10-19T12:14:03.019Z,8.77
2022-10-19T12:17:02.795Z,9.63
2022-10-19T12:19:44.566Z,9.30
2022-10-19T12:22:19.412Z,8.40
2022-10-19T12:24:46.755Z,9.27
2022-10-19T12:27:16.547Z,9.20
2022-10-19T12:29:48.733Z,8.82
2022-10-19T12:32:19.515Z,9.73
2022-10-19T12:34:58.030Z,9.45
2022-10-19T12:37:43.968Z,10.32
2022-10-19T12:40:19.257Z,8.60
2022-10-19T12:42:59.681Z,8.82
2022-10-19T12:45:36.664Z,10.20
2022-10-19T12:48:11.232Z,11.20
2022-10-19T12:50:50.339Z,10.38
2022-10-19T12:53:38.380Z,9.43
2022-10-19T12:56:11.622Z,10.10
2022-10-19T12:58:48.134Z,12.23
2022-10-19T13:03:53.423Z,10.32
2022-10-19T13:06:23.234Z,10.38
2022-10-19T13:08:53.091Z,11.23
2022-10-19T13:11:21.209Z,9.32
2022-10-19T13:13:56.023Z,8.73
2022-10-19T13:16:29.206Z,10.07
2022-10-19T13:19:25.703Z,11.10
2022-10-19T13:22:24.944Z,9.40
2022-10-19T13:25:34.335Z,11.65
2022-10-19T13:28:12.955Z,12.48
2022-10-19T13:30:39.938Z,13.73
2022-10-19T13:33:24.985Z,8.40
2022-10-19T13:36:00.867Z,8.40
2022-10-19T13:38:43.884Z,8.77
2022-10-19T13:41:13.509Z,10.05
2022-10-19T13:44:09.251Z,6.95
2022-10-19T13:47:03.451Z,7.43
2022-10-19T13:49:59.622Z,7.50
2022-10-19T13:52:59.009Z,6.60
2022-10-19T13:56:04.270Z,7.13
2022-10-19T13:58:54.190Z,7.60
2022-10-19T14:01:30.550Z,6.50
2022-10-19T14:04:21.339Z,8.60
2022-10-19T14:06:56.938Z,6.28
2022-10-19T14:09:45.846Z,7.88
2022-10-19T14:12:25.371Z,7.05
2022-10-19T14:14:56.052Z,8.05
2022-10-19T14:17:34.355Z,7.70
2022-10-19T14:20:02.256Z,7.03
2022-10-19T14:22:34.889Z,7.47
2022-10-19T14:25:27.129Z,7.63
2022-10-19T14:28:01.197Z,7.88
2022-10-19T14:30:32.370Z,8.18
2022-10-19T14:33:02.451Z,7.85
2022-10-19T14:35:34.712Z,7.93
2022-10-19T14:38:03.237Z,8.38
2022-10-19T14:40:38.970Z,8.02
2022-10-19T14:43:22.681Z,7.90
2022-10-19T14:46:07.869Z,8.55
2022-10-19T14:48:36.538Z,8.25
2022-10-19T14:51:10.123Z,8.02
2022-10-19T14:53:54.066Z,8.27
2022-10-19T14:56:29.543Z,9.85
2022-10-19T14:59:25.294Z,8.57
2022-10-19T15:01:55.535Z,7.85
2022-10-19T15:04:27.870Z,9.95
2022-10-19T15:06:55.752Z,8.50
2022-10-19T15:09:37.521Z,9.73
2022-10-19T15:12:18.091Z,10.23
2022-10-19T15:14:46.183Z,9.10
2022-10-19T15:17:49.942Z,10.35
2022-10-19T15:20:55.214Z,10.52
2022-10-19T15:23:45.404Z,8.68
2022-10-19T15:26:31.269Z,8.82
2022-10-19T15:29:20.762Z,10.77
2022-10-19T15:31:47.866Z,15.20
2022-10-19T15:34:30.878Z,9.70
2022-10-19T15:37:00.898Z,12.35
2022-10-19T15:39:38.918Z,12.00
2022-10-19T15:42:33.528Z,13.00
2022-10-19T15:45:00.807Z,12.05
2022-10-19T15:47:28.043Z,9.25
2022-10-19T15:49:58.761Z,19.27
2022-10-19T15:52:29.064Z,11.32
2022-10-19T15:54:58.019Z,13.15
2022-10-19T15:57:28.142Z,14.50
2022-10-19T15:59:57.182Z,13.55
2022-10-19T16:02:27.490Z,13.75
2022-10-19T16:04:55.450Z,15.77
2022-10-19T16:07:31.211Z,16.40
2022-10-19T16:09:58.843Z,15.68
2022-10-19T16:12:26.778Z,16.83
2022-10-19T16:14:55.455Z,13.35
2022-10-19T16:17:22.951Z,17.70
2022-10-19T16:19:50.138Z,13.20
2022-10-19T16:22:17.535Z,14.82
2022-10-19T16:24:44.760Z,15.63
2022-10-19T16:27:15.276Z,18.88
2022-10-19T16:29:44.011Z,18.65
2022-10-19T16:32:10.907Z,20.73
2022-10-19T16:34:38.297Z,20.00
2022-10-19T16:37:07.192Z,19.58
2022-10-19T16:39:35.209Z,19.52
2022-10-19T16:42:02.127Z,19.60
2022-10-19T16:44:29.878Z,19.80
2022-10-19T16:46:57.891Z,20.25
2022-10-19T16:49:25.665Z,21.50
2022-10-19T16:51:56.392Z,23.70
2022-10-19T16:54:26.932Z,28.08
2022-10-19T16:56:57.070Z,29.77
2022-10-19T16:59:24.822Z,22.27
2022-10-19T17:01:52.277Z,17.70
2022-10-19T17:04:20.056Z,20.75
2022-10-19T17:06:47.726Z,24.35
2022-10-19T17:09:37.045Z,18.50
2022-10-19T17:14:29.503Z,16.40
2022-10-19T17:16:56.750Z,20.63
2022-10-19T17:19:24.179Z,19.67
2022-10-19T17:21:51.587Z,20.20
2022-10-19T17:24:22.048Z,16.70
2022-10-19T17:26:51.436Z,17.05
2022-10-19T17:29:20.085Z,19.13
2022-10-19T17:31:48.336Z,17.77
2022-10-19T17:34:16.585Z,17.13
2022-10-19T17:36:45.489Z,16.38
2022-10-19T17:39:19.460Z,17.80
2022-10-19T17:41:48.983Z,18.08
2022-10-19T17:44:17.576Z,16.02
2022-10-19T17:46:45.968Z,17.27
2022-10-19T17:49:15.310Z,15.95
2022-10-19T17:51:43.987Z,17.77
2022-10-19T17:54:14.906Z,17.08
2022-10-19T17:56:45.373Z,16.85
2022-10-19T17:59:13.643Z,15.02
2022-10-19T18:01:41.208Z,24.08
2022-10-19T18:04:08.394Z,24.52
2022-10-19T18:06:36.759Z,24.45
2022-10-19T18:09:07.049Z,26.15
2022-10-19T18:11:38.571Z,24.17
2022-10-19T18:14:08.680Z,24.42
2022-10-19T18:16:39.643Z,25.45
2022-10-19T18:19:08.570Z,24.13
2022-10-19T18:21:38.812Z,23.55
2022-10-19T18:24:09.087Z,23.75
2022-10-19T18:26:39.412Z,25.45
2022-10-19T18:29:16.382Z,27.13
2022-10-19T18:34:16.330Z,27.58
2022-10-19T18:36:44.609Z,26.40
2022-10-19T18:39:13.316Z,18.88
2022-10-19T18:41:41.413Z,24.75
2022-10-19T18:44:11.627Z,23.38
2022-10-19T18:46:39.041Z,25.20
2022-10-19T18:49:08.679Z,24.98
2022-10-19T18:51:36.485Z,24.20
2022-10-19T18:54:03.918Z,17.80
2022-10-19T18:56:33.838Z,24.63
2022-10-19T18:59:00.785Z,25.95
2022-10-19T19:01:29.138Z,25.65
2022-10-19T19:04:05.226Z,26.95
2022-10-19T19:06:34.951Z,38.88
2022-10-19T19:09:04.682Z,58.47
2022-10-19T19:11:36.789Z,47.60
2022-10-19T19:14:08.191Z,43.17
2022-10-19T19:16:37.197Z,42.55
2022-10-19T19:19:04.771Z,41.40
2022-10-19T19:21:33.191Z,42.78
2022-10-19T19:24:02.355Z,35.60
2022-10-19T19:26:33.836Z,40.42
2022-10-19T19:29:02.971Z,39.88
2022-10-19T19:31:30.548Z,39.97
2022-10-19T19:34:01.042Z,34.65
2022-10-19T19:36:29.074Z,24.05
2022-10-19T19:38:57.504Z,26.88
2022-10-19T19:41:25.521Z,24.35
2022-10-19T19:43:52.900Z,26.20
2022-10-19T19:46:20.786Z,25.35
2022-10-19T19:48:48.887Z,23.50
2022-10-19T19:51:21.496Z,23.90
2022-10-19T19:53:48.693Z,23.27
2022-10-19T19:56:16.842Z,23.17
2022-10-19T19:58:45.512Z,23.48
2022-10-19T20:01:20.537Z,24.45
2022-10-19T20:03:48.378Z,22.80
2022-10-19T20:06:20.747Z,23.95
2022-10-19T20:08:50.846Z,22.83
2022-10-19T20:11:17.856Z,21.95
2022-10-19T20:13:45.956Z,21.30
2022-10-19T20:16:18.949Z,26.75
2022-10-19T20:18:48.538Z,25.65
2022-10-19T20:21:16.917Z,26.90
2022-10-19T20:23:47.559Z,21.83
2022-10-19T20:26:19.567Z,23.88
2022-10-19T20:28:47.324Z,21.60
2022-10-19T20:31:14.681Z,23.83
2022-10-19T20:33:43.820Z,19.42
2022-10-19T20:36:14.013Z,19.15
2022-10-19T20:39:01.597Z,20.50
2022-10-19T20:41:29.406Z,21.58
2022-10-19T20:43:57.705Z,22.77
2022-10-19T20:46:28.246Z,20.88
2022-10-19T20:48:58.132Z,21.10
2022-10-19T20:51:30.823Z,21.15
2022-10-19T20:54:01.102Z,23.15
2022-10-19T20:56:31.378Z,20.95
2022-10-19T20:59:00.605Z,19.83
2022-10-19T21:01:30.050Z,18.50
2022-10-19T21:04:00.953Z,19.02
2022-10-19T21:06:30.351Z,20.42
2022-10-19T21:08:58.206Z,21.98
2022-10-19T21:11:28.437Z,20.77
2022-10-19T21:13:57.251Z,16.15
2022-10-19T21:16:30.366Z,13.65
2022-10-19T21:18:57.579Z,16.00
2022-10-19T21:21:36.170Z,16.02
2022-10-19T21:24:07.013Z,26.42
2022-10-19T21:26:35.796Z,33.63
2022-10-19T21:29:03.996Z,39.40
2022-10-19T21:31:31.532Z,20.85
2022-10-19T21:33:58.567Z,45.05
2022-10-19T21:36:25.789Z,48.55
2022-10-19T21:38:52.766Z,42.30
2022-10-19T21:41:25.367Z,35.33
2022-10-19T21:43:54.978Z,22.48
2022-10-19T21:46:23.416Z,24.15
2022-10-19T21:48:50.705Z,22.15
2022-10-19T21:51:30.399Z,18.95
2022-10-19T21:53:57.928Z,19.77
2022-10-19T21:56:25.210Z,22.20
2022-10-19T21:58:55.174Z,19.85
2022-10-19T22:01:25.437Z,19.02
2022-10-19T22:04:00.241Z,17.48
2022-10-19T22:06:28.955Z,16.67
2022-10-19T22:08:56.344Z,15.98
2022-10-19T22:11:24.097Z,16.90
2022-10-19T22:13:55.316Z,21.05
2022-10-19T22:16:22.967Z,24.05
2022-10-19T22:18:50.436Z,23.50
2022-10-19T22:21:21.190Z,26.83
2022-10-19T22:23:53.535Z,18.27
2022-10-19T22:26:28.201Z,22.23
2022-10-19T22:29:29.261Z,23.83
2022-10-19T22:31:57.545Z,22.65
2022-10-19T22:34:24.368Z,21.05
2022-10-19T22:36:51.389Z,18.40
2022-10-19T22:39:19.023Z,16.83
2022-10-19T22:41:46.074Z,25.38
2022-10-19T22:44:12.836Z,24.90
2022-10-19T22:46:40.356Z,30.48
2022-10-19T22:51:39.348Z,21.80
2022-10-19T22:54:06.545Z,22.48
2022-10-19T22:56:33.743Z,31.92
2022-10-19T22:59:02.274Z,29.58
2022-10-19T23:01:30.311Z,29.17
2022-10-19T23:03:57.225Z,26.65
2022-10-19T23:06:24.413Z,28.00
2022-10-19T23:08:51.519Z,27.52
2022-10-19T23:11:18.635Z,23.77
2022-10-19T23:13:45.959Z,24.90
2022-10-19T23:16:12.972Z,27.38
2022-10-19T23:18:41.206Z,26.35
2022-10-19T23:21:13.149Z,25.50
2022-10-19T23:23:40.927Z,22.83
2022-10-19T23:26:11.226Z,23.27
2022-10-19T23:28:40.517Z,22.13
2022-10-19T23:31:16.484Z,24.95
2022-10-19T23:33:44.538Z,22.98
2022-10-19T23:36:23.003Z,23.40
2022-10-19T23:38:51.972Z,20.60
2022-10-19T23:41:19.584Z,21.70
2022-10-19T23:43:47.259Z,19.98
2022-10-19T23:46:14.237Z,21.35
2022-10-19T23:48:42.215Z,20.55
2022-10-19T23:51:17.855Z,21.42
2022-10-19T23:53:46.518Z,21.73
2022-10-19T23:56:14.972Z,20.67
2022-10-19T23:58:41.956Z,20.30
